METAR AND TAF INFORMATION
METAR FOR ESNU
ADDS - METARS form results

(1757 UTC 15 July 2020)
Data provider http://aviationweather.gov/metar/data/
 
METAR text: ESNU 151750Z 17005KT 9999 FEW030 17/12 Q1014
Conditions at: ESNU (UMEA AIRPORT , SE) observed 1750 UTC 15 July 2020
Temperature: 17.0°C (63°F)
Dewpoint: 12.0°C (54°F) [RH = 72%]
Pressure (altimeter): 29.94 inches Hg (1014.0 mb)
Winds: from the S (170 degrees) at 6 MPH (5 knots; 2.6 m/s)
Visibility: 6 or more miles (10+ km)
Ceiling: at least 12,000 feet AGL
Clouds: few clouds at 3000 feet AGL
Weather: no significant weather observed at this time

METAR text: ESNU 151720Z 17006KT 9999 FEW030 17/12 Q1014
Conditions at: ESNU (UMEA AIRPORT , SE) observed 1720 UTC 15 July 2020
Temperature: 17.0°C (63°F)
Dewpoint: 12.0°C (54°F) [RH = 72%]
Pressure (altimeter): 29.94 inches Hg (1014.0 mb)
Winds: from the S (170 degrees) at 7 MPH (6 knots; 3.1 m/s)
Visibility: 6 or more miles (10+ km)
Ceiling: at least 12,000 feet AGL
Clouds: few clouds at 3000 feet AGL
Weather: no significant weather observed at this time

Forecast for: ESNU (UMEA AIRPORT , SE)
Text: TAF ESNU 151730Z 1518/1603 16005KT 9999 SCT025
Forecast period: 1800 UTC 15 July 2020 to 0300 UTC 16 July 2020
Forecast type: FROM: standard forecast or significant change
Winds: from the SSE (160 degrees) at 6 MPH (5 knots; 2.6 m/s)
Visibility: 6 or more miles 10+ km)
Ceiling: at least 12,000 feet AGL
Clouds: scattered clouds at 2500 feet AGL
Weather: no significant weather forecast for this period
Text: PROB40 1521/1523 1200 BCFG
Forecast period: 2100 to 2300 UTC 15 July 2020
Forecast type: PROBABLE: 40 percent likelihood of the following during this time
Visibility: 0.75 miles (1.21 km)
Ceiling: unknown
Clouds: missing
Weather: BCFG  (patches of fog)
Text: PROB40 1523/1603 0300 FG VV002
Forecast period: 2300 UTC 15 July 2020 to 0300 UTC 16 July 2020
Forecast type: PROBABLE: 40 percent likelihood of the following during this time
Visibility: 0.19 miles (0.31 km)
Ceiling: indefinite ceiling with vertical visibility of 200 feet AGL
Clouds: obscured sky
Weather: FG  (fog)

 AIRPORT MAP

 RUNWAY INFORMATION
Runway 14 Runway length 7551 ft Runway width 148 ft
Runway elevation 24 ft Runway displaced threshold 0 ft Runway heading 138
Runway 32 Runway length 7551 ft Runway width 148 ft
Runway elevation 17 ft Runway displaced threshold 196 ft Runway heading 318

 AIRPORT FREQUENCIES
Type TWR Name TWR Frequency 119.8 MHZ

 AIRPORT NEAR NAVIGATION AIDS
Type VOR-DME Name Umea Frequency 114100 KHZ



Powered by Virtual Airlines Manager [v2.6.2]